sensor_id;sensor_type;location;lat;lon;timestamp;temperature;humidity
24470;DHT22;12635;50.852;5.676;2023-02-22T00:00:08;6.50;99.90
24470;DHT22;12635;50.852;5.676;2023-02-22T00:02:45;6.50;99.90
24470;DHT22;12635;50.852;5.676;2023-02-22T00:05:13;6.60;99.90
24470;DHT22;12635;50.852;5.676;2023-02-22T00:07:42;6.40;99.90
24470;DHT22;12635;50.852;5.676;2023-02-22T00:10:09;6.40;99.90
24470;DHT22;12635;50.852;5.676;2023-02-22T00:12:39;6.30;99.90
24470;DHT22;12635;50.852;5.676;2023-02-22T00:15:06;6.50;99.90
24470;DHT22;12635;50.852;5.676;2023-02-22T00:17:33;6.30;99.90
24470;DHT22;12635;50.852;5.676;2023-02-22T00:20:02;6.50;99.90
24470;DHT22;12635;50.852;5.676;2023-02-22T00:22:31;6.50;99.90
24470;DHT22;12635;50.852;5.676;2023-02-22T00:24:58;6.50;99.90
24470;DHT22;12635;50.852;5.676;2023-02-22T00:27:24;6.30;99.90
24470;DHT22;12635;50.852;5.676;2023-02-22T00:29:51;6.40;99.90
24470;DHT22;12635;50.852;5.676;2023-02-22T00:32:21;6.30;99.90
24470;DHT22;12635;50.852;5.676;2023-02-22T00:34:50;6.30;99.90
24470;DHT22;12635;50.852;5.676;2023-02-22T00:37:18;6.40;99.90
24470;DHT22;12635;50.852;5.676;2023-02-22T00:39:45;6.40;99.90
24470;DHT22;12635;50.852;5.676;2023-02-22T00:42:12;6.40;99.90
24470;DHT22;12635;50.852;5.676;2023-02-22T00:44:39;6.30;99.90
24470;DHT22;12635;50.852;5.676;2023-02-22T00:47:06;6.40;99.90
24470;DHT22;12635;50.852;5.676;2023-02-22T00:49:33;6.50;99.90
24470;DHT22;12635;50.852;5.676;2023-02-22T01:24:37;6.40;99.90
24470;DHT22;12635;50.852;5.676;2023-02-22T01:27:04;6.40;99.90
24470;DHT22;12635;50.852;5.676;2023-02-22T01:29:31;6.40;99.90
24470;DHT22;12635;50.852;5.676;2023-02-22T01:31:57;6.30;99.90
24470;DHT22;12635;50.852;5.676;2023-02-22T01:34:26;6.30;99.90
24470;DHT22;12635;50.852;5.676;2023-02-22T01:36:54;6.40;99.90
24470;DHT22;12635;50.852;5.676;2023-02-22T01:39:21;6.40;99.90
24470;DHT22;12635;50.852;5.676;2023-02-22T01:41:49;6.40;99.90
24470;DHT22;12635;50.852;5.676;2023-02-22T01:44:19;6.20;99.90
24470;DHT22;12635;50.852;5.676;2023-02-22T01:46:47;6.20;99.90
24470;DHT22;12635;50.852;5.676;2023-02-22T01:49:14;6.30;99.90
24470;DHT22;12635;50.852;5.676;2023-02-22T01:51:42;6.20;99.90
24470;DHT22;12635;50.852;5.676;2023-02-22T01:54:11;6.40;99.90
24470;DHT22;12635;50.852;5.676;2023-02-22T01:56:41;6.30;99.90
24470;DHT22;12635;50.852;5.676;2023-02-22T01:59:12;6.30;99.90
24470;DHT22;12635;50.852;5.676;2023-02-22T02:01:40;6.20;99.90
24470;DHT22;12635;50.852;5.676;2023-02-22T02:04:10;6.20;99.90
24470;DHT22;12635;50.852;5.676;2023-02-22T02:06:37;6.20;99.90
24470;DHT22;12635;50.852;5.676;2023-02-22T02:09:08;6.10;99.90
24470;DHT22;12635;50.852;5.676;2023-02-22T02:11:36;6.10;99.90
24470;DHT22;12635;50.852;5.676;2023-02-22T02:14:05;6.30;99.90
24470;DHT22;12635;50.852;5.676;2023-02-22T02:16:36;6.30;99.90
24470;DHT22;12635;50.852;5.676;2023-02-22T02:19:05;6.10;99.90
24470;DHT22;12635;50.852;5.676;2023-02-22T02:27:16;6.20;99.90
24470;DHT22;12635;50.852;5.676;2023-02-22T02:32:36;6.10;99.90
24470;DHT22;12635;50.852;5.676;2023-02-22T02:35:06;6.20;99.90
24470;DHT22;12635;50.852;5.676;2023-02-22T02:37:36;6.10;99.90
24470;DHT22;12635;50.852;5.676;2023-02-22T02:40:09;6.20;99.90
24470;DHT22;12635;50.852;5.676;2023-02-22T02:42:38;6.00;99.90
24470;DHT22;12635;50.852;5.676;2023-02-22T02:45:07;6.00;99.90
24470;DHT22;12635;50.852;5.676;2023-02-22T02:47:37;5.90;99.90
24470;DHT22;12635;50.852;5.676;2023-02-22T02:50:07;6.10;99.90
24470;DHT22;12635;50.852;5.676;2023-02-22T02:52:35;5.90;99.90
24470;DHT22;12635;50.852;5.676;2023-02-22T02:55:03;6.00;99.90
24470;DHT22;12635;50.852;5.676;2023-02-22T02:57:30;5.90;99.90
24470;DHT22;12635;50.852;5.676;2023-02-22T02:59:57;5.90;99.90
24470;DHT22;12635;50.852;5.676;2023-02-22T03:02:28;5.70;99.90
24470;DHT22;12635;50.852;5.676;2023-02-22T03:05:07;5.50;99.90
24470;DHT22;12635;50.852;5.676;2023-02-22T03:07:44;5.40;99.90
24470;DHT22;12635;50.852;5.676;2023-02-22T03:10:20;5.30;99.90
24470;DHT22;12635;50.852;5.676;2023-02-22T03:12:52;5.30;99.90
24470;DHT22;12635;50.852;5.676;2023-02-22T03:15:26;5.10;99.90
24470;DHT22;12635;50.852;5.676;2023-02-22T03:17:59;5.10;99.90
24470;DHT22;12635;50.852;5.676;2023-02-22T03:20:30;5.10;99.90
24470;DHT22;12635;50.852;5.676;2023-02-22T03:23:02;5.10;99.90
24470;DHT22;12635;50.852;5.676;2023-02-22T03:25:31;5.00;99.90
24470;DHT22;12635;50.852;5.676;2023-02-22T03:28:00;4.90;99.90
24470;DHT22;12635;50.852;5.676;2023-02-22T03:30:30;4.90;99.90
24470;DHT22;12635;50.852;5.676;2023-02-22T03:33:00;4.70;99.90
24470;DHT22;12635;50.852;5.676;2023-02-22T03:35:28;4.90;99.90
24470;DHT22;12635;50.852;5.676;2023-02-22T03:37:59;4.70;99.90
24470;DHT22;12635;50.852;5.676;2023-02-22T03:40:27;4.60;99.90
24470;DHT22;12635;50.852;5.676;2023-02-22T03:42:59;4.80;99.90
24470;DHT22;12635;50.852;5.676;2023-02-22T03:45:27;4.70;99.90
24470;DHT22;12635;50.852;5.676;2023-02-22T03:47:57;4.60;99.90
24470;DHT22;12635;50.852;5.676;2023-02-22T03:50:28;4.50;99.90
24470;DHT22;12635;50.852;5.676;2023-02-22T03:52:56;4.50;99.90
24470;DHT22;12635;50.852;5.676;2023-02-22T03:55:26;4.20;99.90
24470;DHT22;12635;50.852;5.676;2023-02-22T03:57:53;4.30;99.90
24470;DHT22;12635;50.852;5.676;2023-02-22T04:00:22;4.10;99.90
24470;DHT22;12635;50.852;5.676;2023-02-22T04:02:49;4.00;99.90
24470;DHT22;12635;50.852;5.676;2023-02-22T04:05:17;4.10;99.90
24470;DHT22;12635;50.852;5.676;2023-02-22T04:07:44;4.20;99.90
24470;DHT22;12635;50.852;5.676;2023-02-22T04:10:11;4.10;99.90
24470;DHT22;12635;50.852;5.676;2023-02-22T04:12:39;4.10;99.90
24470;DHT22;12635;50.852;5.676;2023-02-22T04:15:07;4.10;99.90
24470;DHT22;12635;50.852;5.676;2023-02-22T04:17:34;3.80;99.90
24470;DHT22;12635;50.852;5.676;2023-02-22T04:20:01;3.90;99.90
24470;DHT22;12635;50.852;5.676;2023-02-22T04:22:28;3.80;99.90
24470;DHT22;12635;50.852;5.676;2023-02-22T04:24:55;3.90;99.90
24470;DHT22;12635;50.852;5.676;2023-02-22T04:27:22;3.70;99.90
24470;DHT22;12635;50.852;5.676;2023-02-22T04:29:50;3.80;99.90
24470;DHT22;12635;50.852;5.676;2023-02-22T04:32:17;3.90;99.90
24470;DHT22;12635;50.852;5.676;2023-02-22T04:34:44;4.00;99.90
24470;DHT22;12635;50.852;5.676;2023-02-22T04:37:11;3.70;99.90
24470;DHT22;12635;50.852;5.676;2023-02-22T04:39:37;3.90;99.90
24470;DHT22;12635;50.852;5.676;2023-02-22T04:42:04;3.70;99.90
24470;DHT22;12635;50.852;5.676;2023-02-22T04:44:31;3.70;99.90
24470;DHT22;12635;50.852;5.676;2023-02-22T04:46:59;3.60;99.90
24470;DHT22;12635;50.852;5.676;2023-02-22T04:49:26;3.50;99.90
24470;DHT22;12635;50.852;5.676;2023-02-22T04:51:53;3.50;99.90
24470;DHT22;12635;50.852;5.676;2023-02-22T04:54:20;3.50;99.90
24470;DHT22;12635;50.852;5.676;2023-02-22T04:56:47;3.70;99.90
24470;DHT22;12635;50.852;5.676;2023-02-22T04:59:13;3.50;99.90
24470;DHT22;12635;50.852;5.676;2023-02-22T05:01:40;3.60;99.90
24470;DHT22;12635;50.852;5.676;2023-02-22T05:04:08;3.70;99.90
24470;DHT22;12635;50.852;5.676;2023-02-22T05:06:35;3.60;99.90
24470;DHT22;12635;50.852;5.676;2023-02-22T05:09:02;3.50;99.90
24470;DHT22;12635;50.852;5.676;2023-02-22T05:11:29;3.70;99.90
24470;DHT22;12635;50.852;5.676;2023-02-22T05:13:56;3.70;99.90
24470;DHT22;12635;50.852;5.676;2023-02-22T05:16:23;3.70;99.90
24470;DHT22;12635;50.852;5.676;2023-02-22T05:18:49;3.70;99.90
24470;DHT22;12635;50.852;5.676;2023-02-22T05:21:18;3.70;99.90
24470;DHT22;12635;50.852;5.676;2023-02-22T05:23:45;3.80;99.90
24470;DHT22;12635;50.852;5.676;2023-02-22T05:26:11;3.70;99.90
24470;DHT22;12635;50.852;5.676;2023-02-22T05:28:38;3.70;99.90
24470;DHT22;12635;50.852;5.676;2023-02-22T05:31:05;3.60;99.90
24470;DHT22;12635;50.852;5.676;2023-02-22T05:33:32;3.70;99.90
24470;DHT22;12635;50.852;5.676;2023-02-22T05:35:59;3.60;99.90
24470;DHT22;12635;50.852;5.676;2023-02-22T05:38:27;4.00;99.90
24470;DHT22;12635;50.852;5.676;2023-02-22T05:40:54;3.80;99.90
24470;DHT22;12635;50.852;5.676;2023-02-22T05:43:21;4.10;99.90
24470;DHT22;12635;50.852;5.676;2023-02-22T05:45:48;4.00;99.90
24470;DHT22;12635;50.852;5.676;2023-02-22T05:48:15;4.00;99.90
24470;DHT22;12635;50.852;5.676;2023-02-22T05:50:41;3.90;99.90
24470;DHT22;12635;50.852;5.676;2023-02-22T05:53:08;3.80;99.90
24470;DHT22;12635;50.852;5.676;2023-02-22T05:55:37;3.70;99.90
24470;DHT22;12635;50.852;5.676;2023-02-22T05:58:04;3.70;99.90
24470;DHT22;12635;50.852;5.676;2023-02-22T06:00:31;3.90;99.90
24470;DHT22;12635;50.852;5.676;2023-02-22T06:02:59;3.90;99.90
24470;DHT22;12635;50.852;5.676;2023-02-22T06:05:26;3.90;99.90
24470;DHT22;12635;50.852;5.676;2023-02-22T06:07:52;4.00;99.90
24470;DHT22;12635;50.852;5.676;2023-02-22T06:10:19;3.80;99.90
24470;DHT22;12635;50.852;5.676;2023-02-22T06:12:48;3.90;99.90
24470;DHT22;12635;50.852;5.676;2023-02-22T06:15:15;3.80;99.90
24470;DHT22;12635;50.852;5.676;2023-02-22T06:17:43;3.80;99.90
24470;DHT22;12635;50.852;5.676;2023-02-22T06:20:10;3.70;99.90
24470;DHT22;12635;50.852;5.676;2023-02-22T06:22:37;3.70;99.90
24470;DHT22;12635;50.852;5.676;2023-02-22T06:25:06;3.80;99.90
24470;DHT22;12635;50.852;5.676;2023-02-22T06:27:33;3.80;99.90
24470;DHT22;12635;50.852;5.676;2023-02-22T06:30:02;3.60;99.90
24470;DHT22;12635;50.852;5.676;2023-02-22T06:32:29;3.70;99.90
24470;DHT22;12635;50.852;5.676;2023-02-22T06:34:57;3.50;99.90
24470;DHT22;12635;50.852;5.676;2023-02-22T06:37:24;3.50;99.90
24470;DHT22;12635;50.852;5.676;2023-02-22T06:39:51;3.60;99.90
24470;DHT22;12635;50.852;5.676;2023-02-22T06:42:18;3.60;99.90
24470;DHT22;12635;50.852;5.676;2023-02-22T06:44:45;3.60;99.90
24470;DHT22;12635;50.852;5.676;2023-02-22T06:47:13;3.50;99.90
24470;DHT22;12635;50.852;5.676;2023-02-22T06:49:40;3.70;99.90
24470;DHT22;12635;50.852;5.676;2023-02-22T06:52:07;3.50;99.90
24470;DHT22;12635;50.852;5.676;2023-02-22T06:54:35;3.70;99.90
24470;DHT22;12635;50.852;5.676;2023-02-22T06:57:01;3.80;99.90
24470;DHT22;12635;50.852;5.676;2023-02-22T06:59:28;3.80;99.90
24470;DHT22;12635;50.852;5.676;2023-02-22T07:01:55;4.00;99.90
24470;DHT22;12635;50.852;5.676;2023-02-22T07:04:23;3.90;99.90
24470;DHT22;12635;50.852;5.676;2023-02-22T07:06:50;4.10;99.90
24470;DHT22;12635;50.852;5.676;2023-02-22T07:09:17;4.10;99.90
24470;DHT22;12635;50.852;5.676;2023-02-22T07:11:44;4.20;99.90
24470;DHT22;12635;50.852;5.676;2023-02-22T07:14:11;4.10;99.90
24470;DHT22;12635;50.852;5.676;2023-02-22T07:16:38;4.40;99.90
24470;DHT22;12635;50.852;5.676;2023-02-22T07:19:05;4.50;99.90
24470;DHT22;12635;50.852;5.676;2023-02-22T07:21:33;4.70;99.90
24470;DHT22;12635;50.852;5.676;2023-02-22T07:24:00;4.80;99.90
24470;DHT22;12635;50.852;5.676;2023-02-22T07:26:26;4.90;99.90
24470;DHT22;12635;50.852;5.676;2023-02-22T07:28:53;5.10;99.90
24470;DHT22;12635;50.852;5.676;2023-02-22T07:31:20;5.20;99.90
24470;DHT22;12635;50.852;5.676;2023-02-22T07:33:47;5.40;99.90
24470;DHT22;12635;50.852;5.676;2023-02-22T07:36:15;5.60;99.90
24470;DHT22;12635;50.852;5.676;2023-02-22T07:38:45;5.90;99.90
24470;DHT22;12635;50.852;5.676;2023-02-22T07:41:12;5.90;99.90
24470;DHT22;12635;50.852;5.676;2023-02-22T07:43:39;5.90;99.90
24470;DHT22;12635;50.852;5.676;2023-02-22T07:46:06;5.80;99.90
24470;DHT22;12635;50.852;5.676;2023-02-22T07:48:33;6.10;99.90
24470;DHT22;12635;50.852;5.676;2023-02-22T07:50:59;6.30;99.90
24470;DHT22;12635;50.852;5.676;2023-02-22T07:53:27;6.20;99.90
24470;DHT22;12635;50.852;5.676;2023-02-22T07:55:56;6.30;99.90
24470;DHT22;12635;50.852;5.676;2023-02-22T07:58:24;6.70;99.90
24470;DHT22;12635;50.852;5.676;2023-02-22T08:00:51;7.10;99.90
24470;DHT22;12635;50.852;5.676;2023-02-22T08:03:19;7.40;99.90
24470;DHT22;12635;50.852;5.676;2023-02-22T08:05:47;7.60;99.90
24470;DHT22;12635;50.852;5.676;2023-02-22T08:08:14;7.60;99.90
24470;DHT22;12635;50.852;5.676;2023-02-22T08:10:41;7.60;99.90
24470;DHT22;12635;50.852;5.676;2023-02-22T08:13:10;7.90;99.90
24470;DHT22;12635;50.852;5.676;2023-02-22T08:15:38;7.90;99.90
24470;DHT22;12635;50.852;5.676;2023-02-22T08:18:07;7.80;99.90
24470;DHT22;12635;50.852;5.676;2023-02-22T08:20:35;7.90;99.90
24470;DHT22;12635;50.852;5.676;2023-02-22T08:23:02;7.90;99.90
24470;DHT22;12635;50.852;5.676;2023-02-22T08:25:29;8.10;99.90
24470;DHT22;12635;50.852;5.676;2023-02-22T08:27:56;8.00;99.90
24470;DHT22;12635;50.852;5.676;2023-02-22T08:30:27;8.20;99.90
24470;DHT22;12635;50.852;5.676;2023-02-22T08:32:54;8.50;99.90
24470;DHT22;12635;50.852;5.676;2023-02-22T08:35:21;8.70;99.90
24470;DHT22;12635;50.852;5.676;2023-02-22T08:37:49;8.60;99.90
24470;DHT22;12635;50.852;5.676;2023-02-22T08:40:17;8.70;99.90
24470;DHT22;12635;50.852;5.676;2023-02-22T08:42:45;9.10;99.90
24470;DHT22;12635;50.852;5.676;2023-02-22T08:45:12;9.70;99.90
24470;DHT22;12635;50.852;5.676;2023-02-22T08:47:41;9.80;99.90
24470;DHT22;12635;50.852;5.676;2023-02-22T08:50:08;9.60;99.90
24470;DHT22;12635;50.852;5.676;2023-02-22T08:52:35;9.70;99.90
24470;DHT22;12635;50.852;5.676;2023-02-22T08:55:02;10.00;99.90
24470;DHT22;12635;50.852;5.676;2023-02-22T08:57:29;10.00;99.90
24470;DHT22;12635;50.852;5.676;2023-02-22T08:59:56;10.50;99.90
24470;DHT22;12635;50.852;5.676;2023-02-22T09:02:23;11.00;99.90
24470;DHT22;12635;50.852;5.676;2023-02-22T09:04:51;11.30;99.90
24470;DHT22;12635;50.852;5.676;2023-02-22T09:07:18;11.70;99.90
24470;DHT22;12635;50.852;5.676;2023-02-22T09:09:45;11.10;99.90
24470;DHT22;12635;50.852;5.676;2023-02-22T09:12:12;11.70;99.90
24470;DHT22;12635;50.852;5.676;2023-02-22T09:14:39;11.50;99.90
24470;DHT22;12635;50.852;5.676;2023-02-22T09:17:07;11.70;99.90
24470;DHT22;12635;50.852;5.676;2023-02-22T09:19:34;12.00;99.90
24470;DHT22;12635;50.852;5.676;2023-02-22T09:22:02;11.70;99.90
24470;DHT22;12635;50.852;5.676;2023-02-22T09:24:29;11.40;99.90
24470;DHT22;12635;50.852;5.676;2023-02-22T09:26:56;12.50;99.90
24470;DHT22;12635;50.852;5.676;2023-02-22T09:29:24;13.30;99.90
24470;DHT22;12635;50.852;5.676;2023-02-22T09:31:52;13.70;99.90
24470;DHT22;12635;50.852;5.676;2023-02-22T09:34:20;13.20;99.90
24470;DHT22;12635;50.852;5.676;2023-02-22T09:36:52;13.30;99.90
24470;DHT22;12635;50.852;5.676;2023-02-22T09:39:21;13.10;99.90
24470;DHT22;12635;50.852;5.676;2023-02-22T09:41:50;13.30;99.90
24470;DHT22;12635;50.852;5.676;2023-02-22T09:44:21;13.00;99.90
24470;DHT22;12635;50.852;5.676;2023-02-22T09:46:50;12.50;99.90
24470;DHT22;12635;50.852;5.676;2023-02-22T09:49:21;11.70;99.90
24470;DHT22;12635;50.852;5.676;2023-02-22T09:51:53;12.00;99.90
24470;DHT22;12635;50.852;5.676;2023-02-22T09:54:23;12.20;99.90
24470;DHT22;12635;50.852;5.676;2023-02-22T09:56:54;12.30;99.90
24470;DHT22;12635;50.852;5.676;2023-02-22T09:59:24;12.50;99.90
24470;DHT22;12635;50.852;5.676;2023-02-22T10:01:54;13.00;99.90
24470;DHT22;12635;50.852;5.676;2023-02-22T10:04:25;13.10;99.90
24470;DHT22;12635;50.852;5.676;2023-02-22T10:06:59;13.50;99.90
24470;DHT22;12635;50.852;5.676;2023-02-22T10:09:32;13.60;99.90
24470;DHT22;12635;50.852;5.676;2023-02-22T10:12:04;13.10;99.90
24470;DHT22;12635;50.852;5.676;2023-02-22T10:14:36;13.10;99.90
24470;DHT22;12635;50.852;5.676;2023-02-22T10:17:09;13.20;99.90
24470;DHT22;12635;50.852;5.676;2023-02-22T10:19:40;13.20;99.90
24470;DHT22;12635;50.852;5.676;2023-02-22T10:22:13;13.20;99.90
24470;DHT22;12635;50.852;5.676;2023-02-22T10:24:48;13.40;99.90
24470;DHT22;12635;50.852;5.676;2023-02-22T10:27:20;13.80;99.90
24470;DHT22;12635;50.852;5.676;2023-02-22T10:29:48;13.90;99.90
24470;DHT22;12635;50.852;5.676;2023-02-22T10:32:18;13.30;99.90
24470;DHT22;12635;50.852;5.676;2023-02-22T10:34:47;13.10;99.90
24470;DHT22;12635;50.852;5.676;2023-02-22T10:37:19;13.10;99.90
24470;DHT22;12635;50.852;5.676;2023-02-22T10:39:48;13.00;99.90
24470;DHT22;12635;50.852;5.676;2023-02-22T10:42:17;13.00;99.90
24470;DHT22;12635;50.852;5.676;2023-02-22T10:44:46;13.10;99.90
24470;DHT22;12635;50.852;5.676;2023-02-22T10:47:13;13.10;99.90
24470;DHT22;12635;50.852;5.676;2023-02-22T10:49:42;13.40;99.90
24470;DHT22;12635;50.852;5.676;2023-02-22T10:52:11;13.50;99.90
24470;DHT22;12635;50.852;5.676;2023-02-22T10:54:39;13.80;99.90
24470;DHT22;12635;50.852;5.676;2023-02-22T10:57:08;14.10;99.90
24470;DHT22;12635;50.852;5.676;2023-02-22T10:59:35;14.60;99.90
24470;DHT22;12635;50.852;5.676;2023-02-22T11:02:07;14.30;99.90
24470;DHT22;12635;50.852;5.676;2023-02-22T11:04:43;14.70;99.90
24470;DHT22;12635;50.852;5.676;2023-02-22T11:07:16;15.00;99.90
24470;DHT22;12635;50.852;5.676;2023-02-22T11:09:44;15.10;99.90
24470;DHT22;12635;50.852;5.676;2023-02-22T11:12:16;15.00;99.90
24470;DHT22;12635;50.852;5.676;2023-02-22T11:14:43;14.80;99.90
24470;DHT22;12635;50.852;5.676;2023-02-22T11:17:12;15.00;99.90
24470;DHT22;12635;50.852;5.676;2023-02-22T11:19:44;14.80;99.90
24470;DHT22;12635;50.852;5.676;2023-02-22T11:22:12;14.40;99.90
24470;DHT22;12635;50.852;5.676;2023-02-22T11:24:43;14.60;99.90
24470;DHT22;12635;50.852;5.676;2023-02-22T11:27:20;14.60;99.90
24470;DHT22;12635;50.852;5.676;2023-02-22T11:29:48;14.40;99.90
24470;DHT22;12635;50.852;5.676;2023-02-22T11:32:16;14.50;99.90
24470;DHT22;12635;50.852;5.676;2023-02-22T11:34:47;14.60;99.90
24470;DHT22;12635;50.852;5.676;2023-02-22T11:37:22;14.70;99.90
24470;DHT22;12635;50.852;5.676;2023-02-22T11:40:02;14.50;99.90
24470;DHT22;12635;50.852;5.676;2023-02-22T11:42:32;14.40;99.90
24470;DHT22;12635;50.852;5.676;2023-02-22T11:45:09;14.80;99.90
24470;DHT22;12635;50.852;5.676;2023-02-22T11:47:44;14.80;99.90
24470;DHT22;12635;50.852;5.676;2023-02-22T11:50:16;14.30;99.90
24470;DHT22;12635;50.852;5.676;2023-02-22T11:52:48;14.10;99.90
24470;DHT22;12635;50.852;5.676;2023-02-22T11:55:18;14.20;99.90
24470;DHT22;12635;50.852;5.676;2023-02-22T11:57:52;14.40;99.90
24470;DHT22;12635;50.852;5.676;2023-02-22T12:00:22;14.40;99.90
24470;DHT22;12635;50.852;5.676;2023-02-22T12:03:05;14.40;99.90
24470;DHT22;12635;50.852;5.676;2023-02-22T12:05:38;14.40;99.90
24470;DHT22;12635;50.852;5.676;2023-02-22T12:08:11;14.30;99.90
24470;DHT22;12635;50.852;5.676;2023-02-22T12:10:43;14.70;99.90
24470;DHT22;12635;50.852;5.676;2023-02-22T12:13:22;14.30;99.90
24470;DHT22;12635;50.852;5.676;2023-02-22T12:15:56;14.20;99.90
24470;DHT22;12635;50.852;5.676;2023-02-22T12:18:28;14.10;99.90
24470;DHT22;12635;50.852;5.676;2023-02-22T12:20:57;14.10;99.90
24470;DHT22;12635;50.852;5.676;2023-02-22T12:23:27;14.10;99.90
24470;DHT22;12635;50.852;5.676;2023-02-22T12:25:59;14.00;99.90
24470;DHT22;12635;50.852;5.676;2023-02-22T12:28:31;14.00;99.90
24470;DHT22;12635;50.852;5.676;2023-02-22T12:31:05;14.10;99.90
24470;DHT22;12635;50.852;5.676;2023-02-22T12:33:37;14.00;99.90
24470;DHT22;12635;50.852;5.676;2023-02-22T12:36:05;14.10;99.90
24470;DHT22;12635;50.852;5.676;2023-02-22T12:38:34;14.10;99.90
24470;DHT22;12635;50.852;5.676;2023-02-22T12:41:04;14.10;99.90
24470;DHT22;12635;50.852;5.676;2023-02-22T12:43:35;14.00;99.90
24470;DHT22;12635;50.852;5.676;2023-02-22T12:46:08;14.10;99.90
24470;DHT22;12635;50.852;5.676;2023-02-22T12:48:39;13.70;99.90
24470;DHT22;12635;50.852;5.676;2023-02-22T12:51:12;13.70;99.90
24470;DHT22;12635;50.852;5.676;2023-02-22T12:53:42;13.80;99.90
24470;DHT22;12635;50.852;5.676;2023-02-22T12:56:14;13.70;99.90
24470;DHT22;12635;50.852;5.676;2023-02-22T12:58:45;13.60;99.90
24470;DHT22;12635;50.852;5.676;2023-02-22T13:01:15;13.40;99.90
24470;DHT22;12635;50.852;5.676;2023-02-22T13:03:44;13.30;99.90
24470;DHT22;12635;50.852;5.676;2023-02-22T13:06:21;13.40;99.90
24470;DHT22;12635;50.852;5.676;2023-02-22T13:08:53;13.50;99.90
24470;DHT22;12635;50.852;5.676;2023-02-22T13:11:26;13.50;99.90
24470;DHT22;12635;50.852;5.676;2023-02-22T13:14:02;13.50;99.90
24470;DHT22;12635;50.852;5.676;2023-02-22T13:16:34;13.40;99.90
24470;DHT22;12635;50.852;5.676;2023-02-22T13:19:06;13.20;99.90
24470;DHT22;12635;50.852;5.676;2023-02-22T13:21:40;13.20;99.90
24470;DHT22;12635;50.852;5.676;2023-02-22T13:24:10;13.10;99.90
24470;DHT22;12635;50.852;5.676;2023-02-22T13:26:43;13.10;99.90
24470;DHT22;12635;50.852;5.676;2023-02-22T13:29:14;13.10;99.90
24470;DHT22;12635;50.852;5.676;2023-02-22T13:31:47;13.20;99.90
24470;DHT22;12635;50.852;5.676;2023-02-22T13:34:20;13.30;99.90
24470;DHT22;12635;50.852;5.676;2023-02-22T13:36:58;13.30;99.90
24470;DHT22;12635;50.852;5.676;2023-02-22T13:39:33;13.30;99.90
24470;DHT22;12635;50.852;5.676;2023-02-22T13:42:08;13.50;99.90
24470;DHT22;12635;50.852;5.676;2023-02-22T13:44:52;13.60;99.90
24470;DHT22;12635;50.852;5.676;2023-02-22T13:47:39;13.40;99.90
24470;DHT22;12635;50.852;5.676;2023-02-22T13:50:17;13.40;99.90
24470;DHT22;12635;50.852;5.676;2023-02-22T13:52:50;13.20;99.90
24470;DHT22;12635;50.852;5.676;2023-02-22T13:55:19;13.10;99.90
24470;DHT22;12635;50.852;5.676;2023-02-22T13:57:48;13.10;99.90
24470;DHT22;12635;50.852;5.676;2023-02-22T14:00:22;13.10;99.90
24470;DHT22;12635;50.852;5.676;2023-02-22T14:02:56;13.10;99.90
24470;DHT22;12635;50.852;5.676;2023-02-22T14:05:34;13.20;99.90
24470;DHT22;12635;50.852;5.676;2023-02-22T14:08:01;13.20;99.90
24470;DHT22;12635;50.852;5.676;2023-02-22T14:10:44;13.10;99.90
24470;DHT22;12635;50.852;5.676;2023-02-22T14:13:12;13.20;99.90
24470;DHT22;12635;50.852;5.676;2023-02-22T14:18:26;13.00;99.90
24470;DHT22;12635;50.852;5.676;2023-02-22T14:21:03;12.80;99.90
24470;DHT22;12635;50.852;5.676;2023-02-22T14:23:33;12.80;99.90
24470;DHT22;12635;50.852;5.676;2023-02-22T14:26:10;12.60;99.90
24470;DHT22;12635;50.852;5.676;2023-02-22T14:28:39;12.60;99.90
24470;DHT22;12635;50.852;5.676;2023-02-22T14:31:07;12.50;99.90
24470;DHT22;12635;50.852;5.676;2023-02-22T14:33:52;12.40;99.90
24470;DHT22;12635;50.852;5.676;2023-02-22T14:36:20;12.30;99.90
24470;DHT22;12635;50.852;5.676;2023-02-22T14:38:47;12.30;99.90
24470;DHT22;12635;50.852;5.676;2023-02-22T14:41:19;12.30;99.90
24470;DHT22;12635;50.852;5.676;2023-02-22T14:43:47;12.20;99.90
24470;DHT22;12635;50.852;5.676;2023-02-22T14:46:16;12.10;99.90
24470;DHT22;12635;50.852;5.676;2023-02-22T14:48:45;12.10;99.90
24470;DHT22;12635;50.852;5.676;2023-02-22T14:51:16;12.10;99.90
24470;DHT22;12635;50.852;5.676;2023-02-22T14:53:45;12.00;99.90
24470;DHT22;12635;50.852;5.676;2023-02-22T14:56:14;12.00;99.90
24470;DHT22;12635;50.852;5.676;2023-02-22T14:58:43;11.90;99.90
24470;DHT22;12635;50.852;5.676;2023-02-22T15:01:23;11.80;99.90
24470;DHT22;12635;50.852;5.676;2023-02-22T15:03:51;11.80;99.90
24470;DHT22;12635;50.852;5.676;2023-02-22T15:06:25;11.80;99.90
24470;DHT22;12635;50.852;5.676;2023-02-22T15:09:06;11.80;99.90
24470;DHT22;12635;50.852;5.676;2023-02-22T15:11:34;11.80;99.90
24470;DHT22;12635;50.852;5.676;2023-02-22T15:14:01;11.70;99.90
24470;DHT22;12635;50.852;5.676;2023-02-22T15:16:29;11.70;99.90
24470;DHT22;12635;50.852;5.676;2023-02-22T15:18:57;11.70;99.90
24470;DHT22;12635;50.852;5.676;2023-02-22T15:21:27;11.70;99.90
24470;DHT22;12635;50.852;5.676;2023-02-22T15:23:54;11.70;99.90
24470;DHT22;12635;50.852;5.676;2023-02-22T15:26:22;11.70;99.90
24470;DHT22;12635;50.852;5.676;2023-02-22T15:28:54;11.60;99.90
24470;DHT22;12635;50.852;5.676;2023-02-22T15:31:22;11.60;99.90
24470;DHT22;12635;50.852;5.676;2023-02-22T15:33:50;11.50;99.90
24470;DHT22;12635;50.852;5.676;2023-02-22T15:36:22;11.40;99.90
24470;DHT22;12635;50.852;5.676;2023-02-22T15:38:52;11.40;99.90
24470;DHT22;12635;50.852;5.676;2023-02-22T15:41:21;11.30;99.90
24470;DHT22;12635;50.852;5.676;2023-02-22T15:43:59;11.30;99.90
24470;DHT22;12635;50.852;5.676;2023-02-22T15:46:26;11.30;99.90
24470;DHT22;12635;50.852;5.676;2023-02-22T15:49:03;11.10;99.90
24470;DHT22;12635;50.852;5.676;2023-02-22T15:51:30;11.00;99.90
24470;DHT22;12635;50.852;5.676;2023-02-22T15:54:00;10.80;99.90
24470;DHT22;12635;50.852;5.676;2023-02-22T15:56:29;10.70;99.90
24470;DHT22;12635;50.852;5.676;2023-02-22T15:58:58;10.60;99.90
24470;DHT22;12635;50.852;5.676;2023-02-22T16:01:25;10.50;99.90
24470;DHT22;12635;50.852;5.676;2023-02-22T16:03:52;10.50;99.90
24470;DHT22;12635;50.852;5.676;2023-02-22T16:06:23;10.50;99.90
24470;DHT22;12635;50.852;5.676;2023-02-22T16:08:54;10.40;99.90
24470;DHT22;12635;50.852;5.676;2023-02-22T16:11:23;10.40;99.90
24470;DHT22;12635;50.852;5.676;2023-02-22T16:13:55;10.30;99.90
24470;DHT22;12635;50.852;5.676;2023-02-22T16:16:24;10.30;99.90
24470;DHT22;12635;50.852;5.676;2023-02-22T16:19:13;10.30;99.90
24470;DHT22;12635;50.852;5.676;2023-02-22T16:21:51;10.20;99.90
24470;DHT22;12635;50.852;5.676;2023-02-22T16:24:25;10.20;99.90
24470;DHT22;12635;50.852;5.676;2023-02-22T16:27:19;10.10;99.90
24470;DHT22;12635;50.852;5.676;2023-02-22T16:29:59;10.00;99.90
24470;DHT22;12635;50.852;5.676;2023-02-22T16:32:26;10.00;99.90
24470;DHT22;12635;50.852;5.676;2023-02-22T16:34:54;10.00;99.90
24470;DHT22;12635;50.852;5.676;2023-02-22T16:37:21;10.00;99.90